Time;durP1;ratioP1;P1;durP2;ratioP2;P2;SDS_P1;SDS_P2;PMS_P1;PMS_P2;Temp;Humidity;BMP_temperature;BMP_pressure;BME280_temperature;BME280_humidity;BME280_pressure;Samples;Min_cycle;Max_cycle;Signal;HPM_P1;HPM_P2
2022/06/04 00:00:23;;;;;;;;;22.67;22.67;30.40;43.80;;;;;;4993660;28;8783;-76
2022/06/04 00:02:49;;;;;;;;;28.00;28.00;30.40;44.10;;;;;;4994353;28;8833;-77
2022/06/04 00:05:28;;;;;;;;;25.33;25.33;30.40;44.20;;;;;;4994348;28;8802;-76
2022/06/04 00:07:56;;;;;;;;;31.33;30.33;30.40;45.30;;;;;;4994291;28;8814;-75
2022/06/04 00:15:55;;;;;;;;;35.33;33.00;30.40;44.70;;;;;;4997705;28;8771;-77
2022/06/04 00:18:22;;;;;;;;;29.00;29.00;30.40;45.10;;;;;;4997734;28;8915;-76
2022/06/04 00:20:49;;;;;;;;;32.00;31.00;30.30;45.50;;;;;;4997477;28;8815;-76
2022/06/04 00:23:16;;;;;;;;;34.67;32.67;30.30;45.70;;;;;;4997604;28;8779;-75
2022/06/04 00:25:47;;;;;;;;;35.00;32.67;30.30;47.80;;;;;;4997462;28;8771;-76
2022/06/04 00:28:14;;;;;;;;;32.00;31.00;30.20;47.20;;;;;;4997419;28;8995;-76
2022/06/04 00:30:40;;;;;;;;;33.33;32.33;30.20;47.30;;;;;;4997864;28;8803;-77
2022/06/04 00:33:06;;;;;;;;;32.33;31.33;30.10;47.90;;;;;;4997351;28;8829;-76
2022/06/04 00:35:34;;;;;;;;;33.67;32.00;30.00;47.50;;;;;;4997542;28;8775;-76
2022/06/04 00:38:00;;;;;;;;;30.00;29.67;29.90;48.40;;;;;;4997518;28;8798;-77
2022/06/04 00:40:50;;;;;;;;;32.00;31.00;29.90;48.90;;;;;;4997188;28;8767;-77
2022/06/04 00:43:18;;;;;;;;;32.33;31.33;29.90;48.90;;;;;;4997218;28;8837;-76
2022/06/04 00:46:15;;;;;;;;;39.00;35.00;29.80;48.90;;;;;;4997088;28;8783;-76
2022/06/04 00:48:41;;;;;;;;;43.67;38.00;29.70;49.00;;;;;;4997359;28;8872;-74
2022/06/04 00:51:07;;;;;;;;;45.33;39.00;29.60;49.20;;;;;;4997158;28;8779;-75
2022/06/04 00:53:35;;;;;;;;;45.33;38.67;29.40;49.40;;;;;;4997271;28;8779;-74
2022/06/04 00:56:23;;;;;;;;;47.33;39.33;29.20;50.10;;;;;;4997040;28;8791;-74
2022/06/04 00:59:26;;;;;;;;;46.00;39.67;29.20;50.60;;;;;;4997191;28;8797;-75
2022/06/04 01:02:04;;;;;;;;;46.33;39.67;29.20;50.70;;;;;;4996902;28;8806;-76
2022/06/04 01:04:50;;;;;;;;;50.00;43.00;29.10;51.10;;;;;;4996792;28;8799;-76
2022/06/04 01:07:47;;;;;;;;;46.33;39.67;29.20;51.50;;;;;;4996713;28;8805;-77
2022/06/04 01:10:13;;;;;;;;;50.33;43.00;29.00;51.80;;;;;;4996713;28;8795;-75
2022/06/04 01:12:51;;;;;;;;;51.67;44.33;29.10;51.70;;;;;;4996977;28;8861;-76
2022/06/04 01:15:23;;;;;;;;;50.33;43.00;29.10;52.70;;;;;;4996906;28;8791;-77
2022/06/04 01:18:08;;;;;;;;;48.00;41.33;29.30;51.70;;;;;;4996794;28;8841;-77
2022/06/04 01:21:02;;;;;;;;;50.33;43.33;29.20;52.10;;;;;;4995717;28;8833;-77
2022/06/04 01:23:49;;;;;;;;;50.33;43.33;29.00;52.40;;;;;;4996524;28;8802;-75
2022/06/04 01:26:36;;;;;;;;;48.67;42.33;28.90;52.90;;;;;;4995455;28;8798;-75
2022/06/04 01:29:14;;;;;;;;;51.33;44.33;28.70;53.80;;;;;;4996509;28;8810;-74
2022/06/04 01:31:49;;;;;;;;;51.67;44.67;28.60;54.40;;;;;;4996619;28;8810;-74
2022/06/04 01:34:20;;;;;;;;;52.25;44.25;28.40;55.50;;;;;;4996349;28;8752;-75
2022/06/04 01:37:03;;;;;;;;;53.00;45.33;28.20;56.70;;;;;;4996325;28;8779;-75
2022/06/04 01:41:03;;;;;;;;;50.33;43.33;28.10;56.80;;;;;;4996619;28;8783;-75
2022/06/04 01:42:21;;;;;;;;;53.33;45.33;27.90;58.10;;;;;;4999513;28;8802;-74
2022/06/04 01:44:56;;;;;;;;;56.00;47.33;27.70;59.20;;;;;;4996050;28;8798;-75
2022/06/04 01:47:22;;;;;;;;;51.50;44.50;27.50;60.40;;;;;;4996092;28;8770;-76
2022/06/04 01:49:53;;;;;;;;;49.33;42.67;27.40;60.70;;;;;;4995962;28;8771;-76
2022/06/04 01:52:23;;;;;;;;;52.00;44.67;27.30;61.00;;;;;;4995000;28;8779;-76
2022/06/04 01:55:01;;;;;;;;;51.33;44.33;27.20;61.40;;;;;;4996479;28;8783;-77
2022/06/04 01:57:39;;;;;;;;;46.33;40.33;27.10;61.70;;;;;;4996088;28;8767;-75
2022/06/04 02:00:30;;;;;;;;;52.33;44.67;27.00;61.60;;;;;;4996110;28;8771;-77
2022/06/04 02:03:03;;;;;;;;;49.00;42.67;27.00;61.80;;;;;;4995785;28;8866;-76
2022/06/04 02:05:37;;;;;;;;;49.00;42.33;27.00;62.30;;;;;;4996060;28;8778;-76
2022/06/04 02:08:06;;;;;;;;;48.00;40.67;27.10;61.90;;;;;;4995595;28;8875;-76
2022/06/04 02:10:38;;;;;;;;;49.67;42.67;27.40;60.50;;;;;;4995652;28;8755;-73
2022/06/04 02:13:11;;;;;;;;;45.33;39.33;27.60;60.00;;;;;;4995563;28;8801;-75
2022/06/04 02:15:56;;;;;;;;;36.67;33.67;27.80;60.10;;;;;;4995495;28;8829;-75
2022/06/04 02:18:24;;;;;;;;;44.33;39.33;28.20;58.10;;;;;;4995593;28;8799;-75
2022/06/04 02:20:49;;;;;;;;;43.00;38.00;28.30;57.80;;;;;;4995409;28;9855;-76
2022/06/04 02:23:16;;;;;;;;;42.33;37.00;28.50;57.70;;;;;;4995644;28;8893;-76
2022/06/04 02:25:42;;;;;;;;;48.33;41.33;28.50;58.00;;;;;;4995322;28;8786;-75
2022/06/04 02:28:09;;;;;;;;;46.00;40.00;28.50;57.90;;;;;;4995229;28;8833;-75
2022/06/04 02:30:49;;;;;;;;;44.00;39.00;28.60;57.70;;;;;;4995374;28;9417;-74
2022/06/04 02:33:25;;;;;;;;;46.67;40.67;28.60;57.00;;;;;;4995220;28;8779;-77
2022/06/04 02:36:34;;;;;;;;;44.33;38.33;28.60;55.00;;;;;;4995247;28;8786;-76
2022/06/04 02:39:05;;;;;;;;;31.67;30.67;28.50;53.40;;;;;;4954462;28;8857;-75
2022/06/04 02:41:38;;;;;;;;;44.33;38.00;28.30;53.70;;;;;;4954416;28;8779;-76
2022/06/04 02:44:33;;;;;;;;;42.00;37.00;28.30;53.50;;;;;;4954383;28;8783;-75
2022/06/04 02:47:27;;;;;;;;;37.33;34.33;28.20;52.90;;;;;;4897066;29;8793;-74
2022/06/04 02:50:08;;;;;;;;;38.67;35.67;28.20;53.40;;;;;;4891679;29;8956;-75
2022/06/04 02:52:35;;;;;;;;;39.67;35.00;28.20;53.20;;;;;;4897182;29;8805;-76
2022/06/04 02:55:01;;;;;;;;;38.33;35.33;28.40;52.50;;;;;;4897163;29;8832;-76
2022/06/04 02:57:31;;;;;;;;;31.33;30.33;28.30;52.70;;;;;;4897072;29;8797;-75
2022/06/04 03:00:00;;;;;;;;;31.67;30.67;28.20;51.80;;;;;;4897112;29;8789;-75
2022/06/04 03:02:29;;;;;;;;;29.33;29.33;28.30;52.20;;;;;;4896997;29;8797;-74
2022/06/04 03:04:58;;;;;;;;;29.33;29.33;28.30;51.20;;;;;;4897059;29;8811;-75
2022/06/04 03:07:25;;;;;;;;;27.33;27.33;28.40;50.90;;;;;;4897122;29;8805;-75
2022/06/04 03:09:58;;;;;;;;;33.00;32.00;28.50;50.80;;;;;;4896936;29;8832;-75
2022/06/04 03:12:24;;;;;;;;;30.00;30.00;28.50;50.50;;;;;;4909132;29;8796;-76
2022/06/04 03:14:50;;;;;;;;;29.00;29.00;28.60;50.00;;;;;;4934789;29;8815;-74
2022/06/04 03:17:16;;;;;;;;;23.00;23.00;28.60;50.80;;;;;;4934574;29;8791;-75
2022/06/04 03:19:41;;;;;;;;;28.33;28.33;28.70;51.30;;;;;;4934780;29;8806;-75
2022/06/04 03:22:07;;;;;;;;;24.67;24.67;28.70;50.80;;;;;;4934666;29;8831;-75
2022/06/04 03:24:33;;;;;;;;;31.00;30.00;28.70;50.30;;;;;;4993969;28;8791;-76
2022/06/04 03:26:59;;;;;;;;;16.33;16.33;28.80;51.40;;;;;;4994644;28;8787;-76
2022/06/04 03:29:25;;;;;;;;;29.67;29.67;28.70;51.50;;;;;;4994795;28;8826;-76
2022/06/04 03:31:50;;;;;;;;;28.00;28.00;28.60;50.70;;;;;;5009952;28;8805;-75
2022/06/04 03:34:16;;;;;;;;;26.67;26.67;28.70;51.00;;;;;;4994734;28;11545;-75
2022/06/04 03:36:42;;;;;;;;;29.33;29.33;28.80;51.00;;;;;;4994814;28;9506;-74
2022/06/04 03:39:09;;;;;;;;;38.00;34.33;28.80;51.40;;;;;;4994374;28;8794;-76
2022/06/04 03:41:36;;;;;;;;;37.33;34.33;28.60;52.50;;;;;;4994779;28;8775;-78
2022/06/04 03:44:03;;;;;;;;;34.67;31.67;28.70;53.40;;;;;;4995834;28;8771;-77
2022/06/04 03:46:29;;;;;;;;;38.33;35.33;28.60;53.90;;;;;;4998427;28;8906;-76
2022/06/04 03:48:56;;;;;;;;;45.33;39.67;28.80;53.10;;;;;;4998317;28;8973;-77
2022/06/04 03:51:24;;;;;;;;;45.33;39.33;28.90;53.30;;;;;;4998223;28;8770;-75
2022/06/04 03:53:50;;;;;;;;;39.67;35.67;29.00;53.30;;;;;;4998076;28;8787;-75
2022/06/04 03:56:16;;;;;;;;;41.00;36.67;29.00;53.20;;;;;;5013347;28;8783;-76
2022/06/04 03:58:42;;;;;;;;;42.33;37.33;29.00;53.80;;;;;;4998075;28;8767;-75
2022/06/04 04:01:17;;;;;;;;;45.67;39.67;29.00;54.10;;;;;;4998018;28;8771;-75
2022/06/04 04:03:44;;;;;;;;;47.33;40.67;29.10;54.50;;;;;;4997913;28;8779;-76
2022/06/04 04:06:23;;;;;;;;;49.67;42.67;29.10;54.30;;;;;;4997881;28;8829;-76
2022/06/04 04:08:50;;;;;;;;;46.00;40.00;29.00;54.40;;;;;;4997853;28;8790;-76
2022/06/04 04:11:19;;;;;;;;;47.00;40.67;29.00;54.30;;;;;;4997786;28;8783;-76
2022/06/04 04:13:46;;;;;;;;;46.00;39.67;29.10;54.70;;;;;;4997816;28;8767;-74
2022/06/04 04:16:14;;;;;;;;;49.00;42.67;29.10;54.50;;;;;;5013014;28;9444;-75
2022/06/04 04:18:40;;;;;;;;;39.67;36.00;29.10;54.40;;;;;;4997865;28;8850;-76
2022/06/04 04:21:14;;;;;;;;;49.00;42.00;29.10;54.60;;;;;;4997498;28;8897;-76
2022/06/04 04:23:41;;;;;;;;;48.67;42.33;29.00;54.60;;;;;;4996640;28;8806;-75
2022/06/04 04:26:08;;;;;;;;;50.33;43.00;29.00;55.30;;;;;;4997815;28;8942;-75
2022/06/04 04:28:35;;;;;;;;;51.67;44.00;29.00;55.10;;;;;;4997642;28;8837;-75
2022/06/04 04:31:01;;;;;;;;;49.67;42.00;28.90;55.40;;;;;;4997357;28;8795;-76
2022/06/04 04:33:27;;;;;;;;;51.00;43.00;29.00;55.00;;;;;;4997642;28;9551;-75
2022/06/04 04:35:53;;;;;;;;;50.33;43.33;29.00;55.00;;;;;;4997406;28;8779;-76
2022/06/04 04:38:21;;;;;;;;;52.67;45.33;29.10;55.10;;;;;;4997100;28;8797;-77
2022/06/04 04:40:48;;;;;;;;;50.33;43.33;29.20;54.90;;;;;;4997249;28;8775;-75
2022/06/04 04:43:14;;;;;;;;;53.67;45.33;29.20;54.60;;;;;;4997485;28;8786;-75
2022/06/04 04:45:43;;;;;;;;;50.33;43.00;29.20;54.70;;;;;;4997371;28;8798;-74
2022/06/04 04:48:10;;;;;;;;;52.00;44.33;29.30;54.50;;;;;;4997174;28;8818;-75
2022/06/04 04:50:39;;;;;;;;;50.33;43.33;29.30;54.60;;;;;;4997362;28;8767;-77
2022/06/04 04:53:09;;;;;;;;;48.33;41.67;29.40;54.20;;;;;;4997323;28;8778;-76
2022/06/04 04:55:35;;;;;;;;;44.00;38.00;29.50;53.90;;;;;;4995972;28;8933;-77
2022/06/04 04:58:02;;;;;;;;;51.33;43.67;29.60;53.70;;;;;;4997222;28;8771;-77
2022/06/04 05:00:28;;;;;;;;;50.67;43.67;29.60;53.40;;;;;;4996963;28;8791;-77
2022/06/04 05:02:56;;;;;;;;;49.67;42.33;29.60;53.60;;;;;;4997061;28;9437;-77
2022/06/04 05:05:22;;;;;;;;;53.33;45.33;29.60;53.50;;;;;;4996766;28;8782;-76
2022/06/04 05:07:48;;;;;;;;;45.67;39.33;29.50;53.00;;;;;;4996949;28;8806;-76
2022/06/04 05:10:14;;;;;;;;;48.67;42.00;29.60;52.50;;;;;;4997018;28;8791;-76
2022/06/04 05:12:41;;;;;;;;;45.33;38.67;29.60;51.70;;;;;;4996684;28;8847;-76
2022/06/04 05:15:07;;;;;;;;;53.67;46.00;29.70;52.40;;;;;;4996706;28;8881;-76
2022/06/04 05:17:33;;;;;;;;;48.00;41.67;29.70;52.30;;;;;;4996767;28;8811;-75
2022/06/04 05:19:59;;;;;;;;;53.33;45.00;29.70;51.10;;;;;;4996779;28;8868;-76
2022/06/04 05:22:25;;;;;;;;;48.67;41.33;29.70;50.40;;;;;;4996322;28;8827;-75
2022/06/04 05:24:51;;;;;;;;;56.25;47.25;29.80;50.20;;;;;;4996579;28;8848;-76
2022/06/04 05:27:17;;;;;;;;;51.33;44.33;29.70;50.40;;;;;;4996486;28;8898;-75
2022/06/04 05:29:42;;;;;;;;;47.67;40.33;29.80;50.00;;;;;;4996346;28;8795;-75
2022/06/04 05:32:09;;;;;;;;;44.33;38.33;29.80;49.30;;;;;;5011520;28;8799;-75
2022/06/04 05:34:36;;;;;;;;;43.00;37.67;29.80;49.80;;;;;;4996239;28;9574;-75
2022/06/04 05:37:03;;;;;;;;;25.67;25.67;29.80;49.20;;;;;;4996349;28;8802;-75
2022/06/04 05:39:34;;;;;;;;;26.67;25.00;29.60;48.60;;;;;;4996135;28;8771;-76
2022/06/04 05:42:00;;;;;;;;;29.67;29.33;29.50;48.00;;;;;;4996020;28;8953;-76
2022/06/04 05:44:27;;;;;;;;;26.67;26.67;29.40;48.70;;;;;;4996113;28;8775;-75
2022/06/04 05:46:53;;;;;;;;;24.67;24.67;29.40;48.50;;;;;;4996155;28;8794;-76
2022/06/04 05:49:19;;;;;;;;;21.33;21.33;29.30;48.20;;;;;;4996220;28;11602;-75
2022/06/04 05:51:46;;;;;;;;;21.67;21.67;29.40;48.20;;;;;;4995819;28;8857;-75
2022/06/04 05:54:13;;;;;;;;;22.67;22.67;29.50;47.90;;;;;;4995694;28;11549;-75
2022/06/04 05:56:43;;;;;;;;;21.33;21.33;29.60;47.80;;;;;;4996010;28;8796;-78
2022/06/04 05:59:11;;;;;;;;;22.33;22.33;29.80;47.30;;;;;;4995572;28;12150;-75
2022/06/04 06:01:39;;;;;;;;;25.00;25.00;29.80;47.30;;;;;;4995640;28;11512;-75
2022/06/04 06:04:07;;;;;;;;;23.67;23.67;29.80;46.90;;;;;;4995502;28;11623;-77
2022/06/04 06:06:35;;;;;;;;;25.33;25.33;29.70;47.30;;;;;;4995385;28;8885;-75
2022/06/04 06:09:04;;;;;;;;;21.67;21.67;29.70;47.50;;;;;;4995694;28;11637;-75
2022/06/04 06:11:31;;;;;;;;;22.33;22.33;29.80;47.50;;;;;;4995458;28;12241;-76
2022/06/04 06:13:57;;;;;;;;;22.00;22.00;29.80;47.40;;;;;;4995673;28;11613;-75
2022/06/04 06:16:26;;;;;;;;;25.00;25.00;29.80;47.30;;;;;;4995277;28;12395;-77
2022/06/04 06:18:54;;;;;;;;;19.00;19.00;29.90;47.10;;;;;;4995259;28;8899;-76
2022/06/04 06:21:23;;;;;;;;;23.00;23.00;30.10;47.10;;;;;;4995031;28;11594;-75
2022/06/04 06:23:50;;;;;;;;;21.33;21.33;30.10;46.90;;;;;;4995446;28;11515;-76
2022/06/04 06:26:21;;;;;;;;;22.33;22.33;30.20;46.60;;;;;;4995374;28;11549;-75
2022/06/04 06:28:48;;;;;;;;;22.33;22.33;30.20;46.50;;;;;;4995070;28;11564;-76
2022/06/04 06:31:19;;;;;;;;;24.00;24.00;30.30;46.20;;;;;;4994914;28;11584;-76
2022/06/04 06:33:45;;;;;;;;;13.00;12.00;30.40;46.60;;;;;;4995101;28;11535;-76
2022/06/04 06:36:14;;;;;;;;;22.00;22.00;30.40;46.10;;;;;;4993856;28;11550;-77
2022/06/04 06:38:41;;;;;;;;;23.00;23.00;30.40;45.60;;;;;;4994853;28;11607;-79
2022/06/04 06:41:08;;;;;;;;;23.00;23.00;30.40;46.00;;;;;;4994048;28;11546;-82
2022/06/04 06:43:46;;;;;;;;;22.67;22.67;30.30;46.10;;;;;;4994826;28;12206;-81
2022/06/04 06:46:15;;;;;;;;;26.33;26.33;30.40;46.00;;;;;;4994112;28;11582;-82
2022/06/04 06:48:43;;;;;;;;;19.00;19.00;30.40;46.30;;;;;;4994356;28;11629;-77
2022/06/04 06:51:14;;;;;;;;;16.50;16.50;30.30;45.10;;;;;;4994791;28;11572;-78
2022/06/04 06:53:40;;;;;;;;;18.25;18.25;30.20;45.10;;;;;;4994720;28;11516;-80
2022/06/04 06:56:15;;;;;;;;;20.50;20.50;30.40;44.80;;;;;;4994704;28;11526;-78
2022/06/04 06:58:41;;;;;;;;;17.00;17.00;30.40;44.90;;;;;;4994548;28;9319;-80
2022/06/04 07:01:08;;;;;;;;;17.00;17.00;30.50;44.50;;;;;;4994734;28;11557;-76
2022/06/04 07:03:38;;;;;;;;;16.25;16.25;30.50;44.30;;;;;;4994650;28;11524;-76
2022/06/04 07:06:07;;;;;;;;;22.67;22.67;30.50;44.90;;;;;;4994765;28;11532;-80
2022/06/04 07:08:34;;;;;;;;;20.33;20.33;30.60;44.60;;;;;;4994377;28;11624;-76
2022/06/04 07:10:59;;;;;;;;;21.25;21.25;30.80;44.60;;;;;;4994392;28;11510;-76
2022/06/04 07:13:25;;;;;;;;;20.00;20.00;30.90;44.40;;;;;;4994379;28;11594;-75
2022/06/04 07:15:52;;;;;;;;;15.00;15.00;30.90;44.30;;;;;;4994132;28;8783;-75
2022/06/04 07:18:18;;;;;;;;;21.67;21.00;30.90;44.40;;;;;;4994775;28;9544;-75
2022/06/04 07:20:44;;;;;;;;;22.67;22.67;30.90;44.90;;;;;;4997880;28;11621;-76
2022/06/04 07:23:10;;;;;;;;;20.67;20.67;31.10;45.10;;;;;;4998018;28;12297;-75
2022/06/04 07:25:37;;;;;;;;;21.67;21.67;31.10;45.10;;;;;;4997362;28;12251;-75
2022/06/04 07:28:04;;;;;;;;;19.50;19.50;31.20;44.50;;;;;;4997951;28;11590;-75
2022/06/04 07:30:30;;;;;;;;;19.50;19.50;31.20;43.60;;;;;;4998194;28;11659;-75
2022/06/04 07:36:20;;;;;;;;;20.75;20.75;31.30;43.80;;;;;;4997994;28;8846;-75
2022/06/04 07:38:46;;;;;;;;;18.50;18.50;31.40;43.80;;;;;;4997734;28;11586;-76
2022/06/04 07:41:17;;;;;;;;;21.67;21.67;31.60;43.60;;;;;;4997755;28;12537;-72
2022/06/04 07:43:42;;;;;;;;;24.00;24.00;31.80;43.10;;;;;;4997141;28;11515;-73
2022/06/04 07:46:08;;;;;;;;;22.33;22.33;32.00;43.20;;;;;;4997223;28;11525;-74
2022/06/04 07:48:34;;;;;;;;;19.25;19.25;32.10;43.00;;;;;;4997412;28;8835;-75
2022/06/04 07:51:02;;;;;;;;;22.25;22.25;32.20;42.90;;;;;;4997510;28;8779;-83
2022/06/04 07:53:28;;;;;;;;;21.00;21.00;32.30;42.80;;;;;;4997938;28;8886;-78
2022/06/04 07:55:54;;;;;;;;;21.50;20.25;32.30;41.90;;;;;;4997505;28;11588;-79
2022/06/04 07:58:19;;;;;;;;;15.50;15.50;32.30;42.10;;;;;;4996449;28;8831;-81
2022/06/04 08:00:45;;;;;;;;;20.50;20.50;32.20;41.90;;;;;;4997462;28;8865;-78
2022/06/04 08:03:11;;;;;;;;;20.00;20.00;32.20;41.70;;;;;;4996550;28;8941;-76
2022/06/04 08:05:39;;;;;;;;;22.00;22.00;32.00;41.00;;;;;;4997380;28;9428;-83
2022/06/04 08:08:05;;;;;;;;;16.75;16.75;32.00;41.80;;;;;;4996015;28;8819;-78
2022/06/04 08:10:31;;;;;;;;;14.75;14.75;32.00;42.20;;;;;;4997237;28;11555;-78
2022/06/04 08:13:00;;;;;;;;;19.25;19.25;32.00;42.70;;;;;;4997381;28;11503;-77
2022/06/04 08:15:26;;;;;;;;;18.25;18.25;32.00;42.50;;;;;;4997584;28;8906;-79
2022/06/04 08:17:52;;;;;;;;;21.00;20.00;32.00;42.40;;;;;;4997382;28;11671;-83
2022/06/04 08:20:18;;;;;;;;;21.00;21.00;32.00;43.50;;;;;;4997648;28;8751;-79
2022/06/04 08:22:45;;;;;;;;;18.00;18.00;31.90;42.60;;;;;;4997435;28;8864;-80
2022/06/04 08:25:11;;;;;;;;;16.00;16.00;31.80;42.70;;;;;;4997385;28;12251;-78
2022/06/04 08:27:37;;;;;;;;;19.75;19.75;31.90;42.60;;;;;;4996893;28;11540;-79
2022/06/04 08:30:04;;;;;;;;;22.67;22.67;32.00;42.00;;;;;;4996903;28;11541;-80
2022/06/04 08:32:29;;;;;;;;;23.33;23.33;32.10;42.30;;;;;;4997097;28;8802;-77
2022/06/04 08:34:55;;;;;;;;;23.67;23.67;32.10;41.90;;;;;;4997436;28;12258;-78
2022/06/04 08:37:21;;;;;;;;;24.00;24.00;32.40;41.80;;;;;;4997203;28;8894;-84
2022/06/04 08:39:47;;;;;;;;;22.67;22.67;32.60;42.00;;;;;;4997061;28;8798;-83
2022/06/04 08:42:18;;;;;;;;;21.67;21.67;32.80;41.40;;;;;;4996976;28;8767;-79
2022/06/04 08:44:48;;;;;;;;;28.67;28.67;32.90;41.80;;;;;;4996795;28;8786;-81
2022/06/04 08:47:32;;;;;;;;;26.67;26.67;32.50;41.70;;;;;;4996949;28;11548;-77
2022/06/04 08:50:07;;;;;;;;;26.00;26.00;32.50;41.60;;;;;;4996778;28;11564;-81
2022/06/04 08:52:47;;;;;;;;;25.33;25.33;32.50;42.20;;;;;;4996908;28;11593;-77
2022/06/04 08:58:32;;;;;;;;;30.33;30.00;32.60;42.10;;;;;;4996762;28;11518;-77
2022/06/04 09:01:08;;;;;;;;;25.33;25.33;32.50;42.60;;;;;;4980575;28;11547;-78
2022/06/04 09:03:46;;;;;;;;;31.67;30.67;32.40;43.30;;;;;;4996858;28;8827;-76
2022/06/04 09:06:33;;;;;;;;;30.33;30.00;32.40;42.90;;;;;;4996887;28;9439;-77
2022/06/04 09:09:09;;;;;;;;;30.33;29.67;32.60;41.90;;;;;;4996695;28;8806;-76
2022/06/04 09:12:19;;;;;;;;;26.67;26.67;32.70;42.00;;;;;;4996212;28;8751;-77
2022/06/04 09:14:53;;;;;;;;;30.33;30.00;32.60;42.40;;;;;;4955438;28;8783;-77
2022/06/04 09:17:37;;;;;;;;;28.33;28.33;32.70;42.80;;;;;;4955421;28;8783;-76
2022/06/04 09:20:14;;;;;;;;;32.00;31.33;32.70;42.90;;;;;;4955513;28;8806;-79
2022/06/04 09:22:43;;;;;;;;;29.67;29.67;32.80;42.70;;;;;;4955065;28;8838;-80
2022/06/04 09:25:13;;;;;;;;;29.00;29.00;32.60;42.30;;;;;;4954929;28;8783;-76
2022/06/04 09:28:15;;;;;;;;;24.00;24.00;32.40;43.40;;;;;;4954978;28;8889;-77
2022/06/04 09:30:52;;;;;;;;;26.33;26.33;32.30;43.30;;;;;;4954783;28;8883;-77
2022/06/04 09:33:38;;;;;;;;;30.33;29.67;32.60;43.20;;;;;;4954660;28;8861;-76
2022/06/04 09:36:05;;;;;;;;;28.33;27.67;32.70;42.60;;;;;;4955312;28;8782;-78
2022/06/04 09:38:33;;;;;;;;;31.33;30.33;32.60;42.60;;;;;;4955117;28;11669;-81
2022/06/04 09:41:03;;;;;;;;;29.00;28.33;33.00;42.70;;;;;;4954150;28;9500;-77
2022/06/04 09:43:29;;;;;;;;;26.67;26.67;33.30;42.50;;;;;;4954806;28;11543;-75
2022/06/04 09:46:01;;;;;;;;;20.00;18.67;33.20;41.70;;;;;;4954884;28;12275;-75
2022/06/04 09:48:32;;;;;;;;;24.67;24.67;33.10;41.80;;;;;;4954814;28;11601;-76
2022/06/04 09:54:25;;;;;;;;;24.33;24.33;33.10;41.60;;;;;;4995806;28;11527;-75
2022/06/04 09:57:02;;;;;;;;;25.33;25.33;33.70;41.60;;;;;;4995948;28;11518;-76
2022/06/04 09:59:30;;;;;;;;;20.50;20.50;33.80;39.60;;;;;;4995864;28;11561;-76
2022/06/04 10:02:10;;;;;;;;;26.00;26.00;33.80;39.10;;;;;;4995855;28;11531;-75
2022/06/04 10:04:57;;;;;;;;;28.67;28.67;33.80;38.20;;;;;;4995566;28;11507;-75
2022/06/04 10:07:37;;;;;;;;;25.33;25.33;33.70;39.00;;;;;;4995644;28;12225;-76
2022/06/04 10:10:19;;;;;;;;;22.33;22.33;34.00;38.80;;;;;;4994658;28;12229;-76
2022/06/04 10:15:45;;;;;;;;;20.00;20.00;33.70;38.00;;;;;;4995393;28;11527;-79
2022/06/04 10:18:29;;;;;;;;;25.00;25.00;33.60;38.10;;;;;;4995367;28;11579;-81
2022/06/04 10:21:06;;;;;;;;;21.25;21.25;33.90;37.10;;;;;;4994984;28;11573;-80
2022/06/04 10:23:47;;;;;;;;;21.00;21.00;34.00;36.90;;;;;;4995167;28;11559;-79
2022/06/04 10:26:30;;;;;;;;;24.33;24.33;34.00;36.90;;;;;;4995272;28;11532;-78
2022/06/04 10:29:26;;;;;;;;;21.75;21.75;34.00;37.40;;;;;;4995102;28;11568;-75
2022/06/04 10:32:30;;;;;;;;;25.00;25.00;34.30;37.00;;;;;;4994500;28;11561;-78
2022/06/04 10:35:15;;;;;;;;;24.25;24.25;34.50;36.40;;;;;;4994613;28;11545;-77
2022/06/04 10:37:51;;;;;;;;;24.67;24.67;34.60;37.00;;;;;;4994368;28;11724;-75
2022/06/04 10:40:41;;;;;;;;;25.33;25.33;34.80;36.60;;;;;;4994521;28;11570;-76
2022/06/04 10:43:26;;;;;;;;;23.33;23.33;34.70;36.60;;;;;;4994495;28;11540;-77
2022/06/04 10:46:01;;;;;;;;;25.33;25.33;34.80;36.80;;;;;;4994804;28;11684;-79
2022/06/04 10:49:06;;;;;;;;;22.25;22.25;35.10;37.00;;;;;;4994165;28;11597;-77
2022/06/04 10:52:16;;;;;;;;;25.00;25.00;35.20;36.40;;;;;;4994210;28;11523;-82
2022/06/04 10:54:47;;;;;;;;;21.75;21.75;35.10;35.70;;;;;;4993804;28;11578;-76
2022/06/04 10:57:24;;;;;;;;;22.00;22.00;35.60;35.70;;;;;;4994694;28;11511;-77
2022/06/04 11:00:03;;;;;;;;;30.00;30.00;35.70;35.30;;;;;;4994723;28;11582;-76
2022/06/04 11:02:50;;;;;;;;;22.67;22.67;36.00;35.70;;;;;;4993410;28;11557;-76
2022/06/04 11:05:35;;;;;;;;;22.00;22.00;36.50;34.90;;;;;;4994059;28;11581;-76
2022/06/04 11:08:22;;;;;;;;;22.75;22.75;36.60;34.50;;;;;;4993895;28;11678;-76
2022/06/04 11:11:12;;;;;;;;;24.50;24.50;36.70;34.20;;;;;;4994561;28;12374;-76
2022/06/04 11:14:02;;;;;;;;;24.25;24.25;37.00;33.40;;;;;;4994691;28;11529;-76
2022/06/04 11:16:38;;;;;;;;;22.75;22.75;37.00;32.60;;;;;;4994460;28;12184;-76
2022/06/04 11:19:17;;;;;;;;;21.75;21.75;37.00;33.20;;;;;;4994544;28;11586;-77
2022/06/04 11:21:56;;;;;;;;;22.25;22.25;37.30;31.80;;;;;;4993896;28;11579;-77
2022/06/04 11:25:24;;;;;;;;;23.50;23.50;37.40;32.30;;;;;;4994239;28;12610;-78
2022/06/04 11:28:00;;;;;;;;;20.75;20.75;37.50;31.20;;;;;;4945370;29;11508;-78
2022/06/04 11:30:39;;;;;;;;;21.50;21.50;37.20;31.10;;;;;;4953365;29;11502;-77
2022/06/04 11:33:45;;;;;;;;;22.00;22.00;37.60;31.10;;;;;;4952834;29;11508;-80
2022/06/04 11:36:31;;;;;;;;;20.25;20.25;37.90;30.40;;;;;;4950420;29;11544;-77
2022/06/04 11:39:01;;;;;;;;;15.25;15.25;38.30;30.30;;;;;;4953032;29;11512;-77
2022/06/04 11:41:46;;;;;;;;;12.50;12.50;38.40;30.00;;;;;;4952987;29;12485;-77
2022/06/04 11:44:15;;;;;;;;;15.50;15.50;38.40;28.30;;;;;;4953040;29;11691;-79
2022/06/04 11:47:02;;;;;;;;;11.50;11.50;38.50;28.40;;;;;;4953225;29;11513;-78
2022/06/04 11:50:12;;;;;;;;;14.75;14.75;38.20;28.50;;;;;;4953145;29;11562;-77
2022/06/04 11:52:53;;;;;;;;;15.00;15.00;38.40;28.30;;;;;;4896023;29;11635;-78
2022/06/04 11:55:27;;;;;;;;;14.00;14.00;38.90;28.60;;;;;;4896211;29;11809;-78
2022/06/04 11:58:14;;;;;;;;;16.75;16.75;39.40;27.80;;;;;;4895313;29;11612;-80
2022/06/04 12:00:44;;;;;;;;;16.00;16.00;39.50;27.60;;;;;;4903596;29;11614;-78
2022/06/04 12:03:14;;;;;;;;;15.75;15.75;40.50;27.20;;;;;;4934004;29;11666;-77
2022/06/04 12:05:43;;;;;;;;;15.50;15.50;41.10;25.30;;;;;;4936227;29;11608;-80
2022/06/04 12:08:20;;;;;;;;;14.00;14.00;40.20;25.90;;;;;;4937243;29;11625;-79
2022/06/04 12:11:04;;;;;;;;;11.50;11.50;40.10;26.60;;;;;;4937231;29;12271;-78
2022/06/04 12:13:48;;;;;;;;;14.25;14.25;40.10;25.90;;;;;;4937263;29;12309;-79
2022/06/04 12:16:29;;;;;;;;;12.50;12.50;40.10;26.20;;;;;;4937312;29;11688;-81
2022/06/04 12:25:35;;;;;;;;;11.00;11.00;39.80;25.80;;;;;;4956460;28;11550;-79
2022/06/04 12:28:16;;;;;;;;;13.25;13.25;39.80;25.80;;;;;;4991855;28;11582;-80
2022/06/04 12:30:46;;;;;;;;;13.00;13.00;39.80;25.60;;;;;;4997322;28;11527;-79
2022/06/04 12:33:51;;;;;;;;;15.00;15.00;40.20;25.90;;;;;;4997523;28;11537;-79
2022/06/04 12:36:25;;;;;;;;;12.50;11.25;40.10;26.20;;;;;;4956433;28;11490;-79
2022/06/04 12:39:16;;;;;;;;;13.00;13.00;39.50;26.50;;;;;;4956133;28;11554;-80
2022/06/04 12:41:49;;;;;;;;;11.75;11.75;39.60;26.60;;;;;;4955316;28;11463;-81
2022/06/04 12:44:19;;;;;;;;;13.75;13.75;39.80;26.60;;;;;;4956076;28;11507;-74
2022/06/04 12:46:48;;;;;;;;;12.00;12.00;40.10;26.80;;;;;;4956172;28;11485;-75
2022/06/04 12:49:38;;;;;;;;;14.50;14.50;39.90;25.90;;;;;;4955577;28;11568;-77
2022/06/04 12:52:40;;;;;;;;;11.75;11.75;40.00;26.00;;;;;;4955923;28;11502;-75
2022/06/04 12:55:22;;;;;;;;;13.00;13.00;40.00;25.00;;;;;;4955922;28;11466;-77
2022/06/04 12:57:58;;;;;;;;;13.00;13.00;40.20;25.40;;;;;;4956032;28;11456;-77
2022/06/04 13:00:26;;;;;;;;;14.75;14.75;40.20;25.90;;;;;;4956124;28;11477;-77
2022/06/04 13:03:00;;;;;;;;;14.75;14.75;40.00;25.70;;;;;;4956360;28;12244;-76
2022/06/04 13:05:28;;;;;;;;;9.50;9.50;39.80;26.00;;;;;;4955927;28;11509;-76
2022/06/04 13:08:06;;;;;;;;;15.00;15.00;39.50;27.20;;;;;;4990944;28;11599;-77
2022/06/04 13:10:52;;;;;;;;;13.00;13.00;39.60;26.80;;;;;;4996796;28;11513;-76
2022/06/04 13:13:45;;;;;;;;;13.00;13.00;39.60;26.30;;;;;;4995531;28;11519;-77
2022/06/04 13:16:30;;;;;;;;;15.50;15.50;39.60;26.20;;;;;;4995789;28;12153;-76
2022/06/04 13:19:08;;;;;;;;;11.25;11.25;39.60;26.60;;;;;;4997320;28;11547;-77
2022/06/04 13:21:40;;;;;;;;;10.25;10.25;39.90;26.30;;;;;;4996815;28;11537;-76
2022/06/04 13:24:17;;;;;;;;;10.00;10.00;39.80;26.00;;;;;;4996847;28;11543;-77
2022/06/04 13:26:58;;;;;;;;;11.50;11.50;39.30;25.40;;;;;;4994039;28;11557;-76
2022/06/04 13:29:27;;;;;;;;;8.75;8.75;39.40;25.50;;;;;;4995313;28;11573;-77